createdAt,value
2018-12-20T00:00:15.994Z,80.46
2018-12-20T00:02:43.563Z,80.55
2018-12-20T00:05:11.192Z,80.23
2018-12-20T00:07:38.687Z,80.69
2018-12-20T00:10:06.414Z,81.04
2018-12-20T00:12:34.023Z,80.80
2018-12-20T00:15:01.795Z,79.84
2018-12-20T00:17:50.500Z,80.23
2018-12-20T00:20:18.084Z,80.29
2018-12-20T00:22:45.650Z,79.98
2018-12-20T00:25:13.219Z,80.62
2018-12-20T00:27:40.869Z,79.78
2018-12-20T00:30:08.374Z,79.32
2018-12-20T00:32:35.850Z,79.77
2018-12-20T00:35:03.368Z,81.05
2018-12-20T00:37:30.899Z,79.62
2018-12-20T00:40:06.270Z,80.00
2018-12-20T00:42:28.655Z,80.58
2018-12-20T00:44:56.140Z,79.34
2018-12-20T00:47:23.605Z,79.74
2018-12-20T00:49:51.209Z,79.41
2018-12-20T00:52:18.740Z,79.44
2018-12-20T00:54:46.177Z,79.91
2018-12-20T00:57:13.748Z,79.92
2018-12-20T00:59:41.459Z,79.58
2018-12-20T01:02:09.070Z,79.05
2018-12-20T01:04:36.633Z,79.28
2018-12-20T01:07:04.221Z,78.69
2018-12-20T01:09:31.815Z,79.29
2018-12-20T01:11:59.390Z,78.74
2018-12-20T01:14:26.999Z,78.97
2018-12-20T01:16:54.442Z,79.32
2018-12-20T01:19:21.936Z,79.17
2018-12-20T01:21:49.681Z,79.40
2018-12-20T01:24:17.242Z,79.47
2018-12-20T01:26:44.753Z,79.19
2018-12-20T01:29:12.264Z,79.35
2018-12-20T01:31:39.705Z,79.18
2018-12-20T01:34:07.213Z,78.66
2018-12-20T01:36:34.843Z,77.88
2018-12-20T01:39:02.888Z,78.94
2018-12-20T01:41:30.320Z,78.12
2018-12-20T01:43:57.824Z,77.99
2018-12-20T01:46:25.496Z,78.19
2018-12-20T01:48:53.067Z,78.05
2018-12-20T01:51:20.690Z,78.70
2018-12-20T01:53:48.522Z,78.22
2018-12-20T01:56:16.149Z,79.17
2018-12-20T01:58:43.835Z,79.09
2018-12-20T02:01:11.619Z,79.39
2018-12-20T02:03:39.140Z,79.08
2018-12-20T02:06:06.585Z,79.72
2018-12-20T02:08:34.072Z,79.48
2018-12-20T02:11:01.566Z,79.56
2018-12-20T02:13:29.079Z,79.53
2018-12-20T02:15:56.580Z,79.84
2018-12-20T02:18:24.125Z,79.79
2018-12-20T02:20:51.718Z,79.64
2018-12-20T02:23:19.410Z,80.10
2018-12-20T02:25:46.984Z,79.52
2018-12-20T02:28:14.530Z,80.21
2018-12-20T02:30:42.078Z,80.42
2018-12-20T02:33:09.540Z,80.16
2018-12-20T02:35:37.064Z,80.00
2018-12-20T02:38:04.885Z,80.45
2018-12-20T02:40:32.477Z,80.18
2018-12-20T02:43:00.179Z,79.81
2018-12-20T02:45:27.783Z,80.47
2018-12-20T02:47:55.448Z,80.15
2018-12-20T02:50:22.953Z,79.39
2018-12-20T02:52:50.515Z,80.14
2018-12-20T02:55:18.362Z,79.41
2018-12-20T02:57:46.182Z,79.69
2018-12-20T03:00:13.767Z,79.72
2018-12-20T03:02:41.458Z,80.54
2018-12-20T03:05:08.970Z,80.10
2018-12-20T03:07:36.462Z,79.70
2018-12-20T03:10:03.957Z,79.43
2018-12-20T03:12:31.524Z,79.18
2018-12-20T03:14:59.081Z,79.54
2018-12-20T03:17:26.528Z,79.34
2018-12-20T03:19:53.988Z,79.81
2018-12-20T03:22:21.670Z,79.77
2018-12-20T03:24:49.227Z,79.85
2018-12-20T03:27:16.748Z,79.88
2018-12-20T03:29:44.387Z,80.02
2018-12-20T03:32:12.241Z,79.34
2018-12-20T03:34:39.896Z,80.04
2018-12-20T03:37:07.448Z,79.53
2018-12-20T03:39:34.896Z,80.37
2018-12-20T03:42:02.413Z,79.78
2018-12-20T03:44:30.019Z,80.05
2018-12-20T03:46:57.570Z,79.87
2018-12-20T03:49:25.192Z,80.08
2018-12-20T03:51:52.895Z,80.11
2018-12-20T03:54:20.441Z,79.75
2018-12-20T03:56:48.055Z,79.95
2018-12-20T03:59:15.941Z,80.50
2018-12-20T04:01:43.473Z,79.87
2018-12-20T04:04:10.954Z,80.07
2018-12-20T04:06:38.452Z,79.94
2018-12-20T04:09:06.237Z,79.34
2018-12-20T04:11:33.778Z,79.82
2018-12-20T04:14:01.425Z,80.06
2018-12-20T04:16:28.904Z,79.76
2018-12-20T04:18:56.601Z,79.85
2018-12-20T04:21:24.113Z,80.03
2018-12-20T04:23:51.825Z,80.17
2018-12-20T04:26:19.475Z,80.62
2018-12-20T04:28:47.045Z,80.72
2018-12-20T04:31:14.887Z,79.78
2018-12-20T04:33:42.701Z,80.79
2018-12-20T04:36:10.322Z,81.24
2018-12-20T04:38:38.047Z,81.04
2018-12-20T04:41:05.685Z,81.02
2018-12-20T04:43:33.233Z,81.15
2018-12-20T04:46:00.731Z,81.14
2018-12-20T04:48:28.263Z,80.20
2018-12-20T04:50:55.727Z,80.54
2018-12-20T04:53:23.173Z,79.88
2018-12-20T04:55:50.645Z,80.00
2018-12-20T04:58:18.120Z,80.73
2018-12-20T05:00:46.252Z,79.83
2018-12-20T05:03:13.940Z,79.39
2018-12-20T05:05:41.397Z,80.33
2018-12-20T05:08:08.941Z,79.75
2018-12-20T05:10:36.464Z,80.43
2018-12-20T05:13:03.897Z,80.31
2018-12-20T05:15:31.347Z,80.05
2018-12-20T05:17:58.846Z,79.29
2018-12-20T05:20:26.317Z,79.65
2018-12-20T05:22:53.885Z,80.18
2018-12-20T05:25:21.414Z,80.32
2018-12-20T05:27:49.081Z,79.81
2018-12-20T05:30:16.679Z,79.81
2018-12-20T05:32:44.347Z,80.28
2018-12-20T05:35:12.142Z,79.33
2018-12-20T05:37:39.896Z,80.22
2018-12-20T05:40:07.520Z,80.70
2018-12-20T05:42:35.011Z,79.32
2018-12-20T05:45:02.520Z,80.30
2018-12-20T05:47:30.158Z,79.85
2018-12-20T05:49:57.682Z,80.31
2018-12-20T05:52:25.125Z,79.96
2018-12-20T05:54:52.556Z,80.47
2018-12-20T05:57:20.017Z,81.08
2018-12-20T05:59:47.483Z,80.31
2018-12-20T06:02:15.015Z,79.80
2018-12-20T06:04:42.763Z,80.63
2018-12-20T06:07:10.327Z,80.71
2018-12-20T06:09:37.904Z,79.92
2018-12-20T06:12:05.614Z,79.90
2018-12-20T06:14:33.248Z,80.39
2018-12-20T06:17:00.904Z,80.71
2018-12-20T06:19:28.658Z,81.73
2018-12-20T06:21:56.116Z,81.39
2018-12-20T06:24:23.563Z,82.09
2018-12-20T06:26:50.996Z,81.97
2018-12-20T06:29:18.436Z,82.34
2018-12-20T06:31:45.874Z,82.62
2018-12-20T06:34:13.309Z,81.65
2018-12-20T06:36:40.770Z,82.17
2018-12-20T06:39:08.213Z,81.90
2018-12-20T06:41:35.637Z,82.67
2018-12-20T06:44:07.136Z,82.31
2018-12-20T06:46:32.502Z,82.16
2018-12-20T06:48:59.954Z,81.57
2018-12-20T06:51:27.389Z,82.14
2018-12-20T06:53:54.913Z,82.46
2018-12-20T06:56:22.353Z,82.48
2018-12-20T06:58:49.792Z,82.23
2018-12-20T07:01:17.240Z,81.95
2018-12-20T07:03:44.683Z,82.16
2018-12-20T07:06:12.117Z,82.17
2018-12-20T07:08:39.564Z,81.68
2018-12-20T07:11:06.999Z,81.95
2018-12-20T07:13:34.439Z,81.24
2018-12-20T07:16:01.872Z,81.90
2018-12-20T07:18:29.396Z,81.63
2018-12-20T07:20:56.834Z,81.88
2018-12-20T07:23:24.271Z,82.27
2018-12-20T07:25:51.717Z,81.74
2018-12-20T07:28:19.164Z,81.42
2018-12-20T07:30:46.609Z,81.89
2018-12-20T07:33:14.048Z,81.52
2018-12-20T07:35:41.485Z,82.05
2018-12-20T07:38:08.941Z,81.34
2018-12-20T07:40:38.159Z,80.50
2018-12-20T07:43:05.727Z,79.80
2018-12-20T07:45:33.154Z,80.67
2018-12-20T07:48:00.632Z,80.01
2018-12-20T07:50:28.080Z,80.15
2018-12-20T07:52:55.532Z,80.07
2018-12-20T07:55:22.989Z,79.62
2018-12-20T07:57:50.438Z,80.02
2018-12-20T08:00:17.885Z,80.33
2018-12-20T08:02:45.333Z,80.18
2018-12-20T08:05:12.781Z,80.28
2018-12-20T08:07:40.221Z,79.97
2018-12-20T08:10:07.680Z,79.45
2018-12-20T08:12:35.108Z,80.20
2018-12-20T08:15:02.559Z,80.03
2018-12-20T08:17:29.993Z,79.74
2018-12-20T08:19:57.446Z,79.47
2018-12-20T08:22:24.888Z,80.43
2018-12-20T08:24:52.329Z,81.00
2018-12-20T08:27:19.823Z,80.53
2018-12-20T08:29:47.383Z,80.84
2018-12-20T08:32:14.892Z,80.54
2018-12-20T08:34:42.336Z,80.47
2018-12-20T08:37:09.801Z,80.24
2018-12-20T08:39:37.239Z,80.32
2018-12-20T08:42:04.696Z,80.45
2018-12-20T08:44:32.132Z,79.78
2018-12-20T08:46:59.577Z,79.66
2018-12-20T08:49:27.013Z,80.15
2018-12-20T08:51:54.452Z,79.17
2018-12-20T08:54:21.892Z,79.66
2018-12-20T08:56:49.328Z,79.36
2018-12-20T08:59:16.782Z,79.75
2018-12-20T09:01:44.212Z,79.78
2018-12-20T09:04:11.669Z,79.68
2018-12-20T09:06:39.106Z,80.36
2018-12-20T09:09:06.544Z,79.49
2018-12-20T09:11:33.986Z,79.26
2018-12-20T09:14:01.438Z,79.76
2018-12-20T09:16:28.868Z,80.14
2018-12-20T09:18:56.366Z,79.81
2018-12-20T09:21:23.855Z,79.83
2018-12-20T09:23:51.285Z,80.32
2018-12-20T09:26:18.729Z,80.00
2018-12-20T09:28:46.169Z,80.08
2018-12-20T09:31:13.609Z,80.24
2018-12-20T09:33:41.056Z,79.91
2018-12-20T09:36:08.496Z,80.14
2018-12-20T09:38:35.965Z,80.24
2018-12-20T09:41:03.439Z,80.25
2018-12-20T09:43:30.933Z,80.61
2018-12-20T09:45:58.368Z,80.82
2018-12-20T09:48:25.804Z,80.57
2018-12-20T09:50:53.257Z,79.99
2018-12-20T09:53:20.717Z,79.92
2018-12-20T09:55:48.156Z,79.91
2018-12-20T09:58:15.602Z,80.50
2018-12-20T10:00:43.045Z,80.69
2018-12-20T10:03:10.475Z,80.84
2018-12-20T10:05:37.940Z,80.96
2018-12-20T10:08:05.372Z,80.30
2018-12-20T10:10:32.831Z,80.51
2018-12-20T10:13:00.282Z,80.09
2018-12-20T10:15:27.731Z,80.04
2018-12-20T10:17:55.169Z,80.10
2018-12-20T10:20:22.604Z,80.41
2018-12-20T10:22:50.045Z,80.40
2018-12-20T10:25:17.484Z,80.59
2018-12-20T10:27:44.924Z,80.20
2018-12-20T10:30:12.360Z,79.77
2018-12-20T10:32:39.796Z,80.12
2018-12-20T10:35:07.232Z,80.25
2018-12-20T10:37:34.668Z,80.62
2018-12-20T10:40:02.121Z,80.79
2018-12-20T10:42:29.557Z,80.01
2018-12-20T10:44:57.010Z,79.62
2018-12-20T10:47:29.144Z,80.71
2018-12-20T10:49:55.156Z,80.00
2018-12-20T10:52:22.593Z,79.97
2018-12-20T10:54:50.038Z,80.84
2018-12-20T10:57:17.473Z,80.42
2018-12-20T10:59:44.921Z,80.20
2018-12-20T11:02:17.737Z,80.02
2018-12-20T11:04:50.583Z,79.91
2018-12-20T11:07:23.404Z,79.52
2018-12-20T11:09:56.261Z,79.62
2018-12-20T11:12:29.312Z,79.57
2018-12-20T11:14:56.760Z,79.16
2018-12-20T11:17:24.193Z,78.52
2018-12-20T11:19:51.645Z,78.95
2018-12-20T11:22:19.080Z,78.43
2018-12-20T11:24:46.526Z,78.21
2018-12-20T11:27:14.020Z,77.76
2018-12-20T11:29:41.492Z,76.97
2018-12-20T11:32:08.949Z,77.65
2018-12-20T11:34:36.404Z,77.75
2018-12-20T11:37:03.841Z,77.88
2018-12-20T11:39:31.289Z,78.54
2018-12-20T11:41:58.749Z,77.52
2018-12-20T11:44:26.265Z,77.88
2018-12-20T11:46:53.700Z,77.90
2018-12-20T11:49:21.152Z,78.03
2018-12-20T11:51:48.605Z,78.66
2018-12-20T11:54:16.024Z,78.25
2018-12-20T11:56:43.532Z,78.07
2018-12-20T11:59:10.976Z,78.42
2018-12-20T12:01:38.428Z,78.73
2018-12-20T12:04:05.940Z,78.01
2018-12-20T12:06:33.381Z,78.00
2018-12-20T12:09:00.823Z,77.92
2018-12-20T12:11:28.264Z,78.01
2018-12-20T12:13:55.704Z,77.70
2018-12-20T12:16:23.149Z,77.63
2018-12-20T12:18:50.582Z,77.99
2018-12-20T12:21:18.035Z,77.55
2018-12-20T12:23:45.491Z,77.22
2018-12-20T12:26:12.929Z,77.15
2018-12-20T12:28:40.368Z,77.41
2018-12-20T12:31:07.809Z,76.87
2018-12-20T12:33:35.261Z,76.90
2018-12-20T12:36:02.708Z,76.87
2018-12-20T12:38:30.146Z,77.19
2018-12-20T12:40:57.608Z,77.27
2018-12-20T12:43:25.060Z,76.84
2018-12-20T12:45:52.505Z,77.44
2018-12-20T12:48:19.938Z,77.14
2018-12-20T12:50:47.391Z,77.27
2018-12-20T12:53:14.845Z,77.23
2018-12-20T12:55:42.293Z,76.83
2018-12-20T12:58:09.772Z,77.17
2018-12-20T13:00:37.220Z,77.58
2018-12-20T13:03:04.668Z,78.11
2018-12-20T13:05:32.114Z,78.10
2018-12-20T13:07:59.553Z,77.15
2018-12-20T13:10:26.991Z,77.77
2018-12-20T13:12:54.444Z,77.67
2018-12-20T13:15:21.895Z,77.15
2018-12-20T13:17:49.321Z,77.53
2018-12-20T13:20:16.769Z,77.53
2018-12-20T13:22:44.220Z,78.18
2018-12-20T13:25:11.705Z,78.18
2018-12-20T13:27:39.173Z,78.13
2018-12-20T13:30:06.618Z,77.39
2018-12-20T13:32:34.066Z,77.76
2018-12-20T13:35:01.517Z,77.63
2018-12-20T13:37:29.032Z,77.54
2018-12-20T13:39:56.468Z,77.19
2018-12-20T13:42:23.916Z,77.56
2018-12-20T13:44:51.360Z,77.97
2018-12-20T13:47:18.876Z,78.10
2018-12-20T13:49:46.523Z,77.83
2018-12-20T13:52:13.972Z,78.16
2018-12-20T13:54:41.414Z,77.95
2018-12-20T13:57:08.852Z,78.10
2018-12-20T13:59:36.298Z,78.72
2018-12-20T14:02:03.749Z,78.72
2018-12-20T14:04:31.188Z,78.63
2018-12-20T14:06:58.644Z,78.79
2018-12-20T14:09:27.045Z,79.17
2018-12-20T14:11:54.530Z,78.92
2018-12-20T14:14:21.984Z,79.69
2018-12-20T14:16:49.421Z,80.03
2018-12-20T14:19:17.104Z,79.99
2018-12-20T14:21:44.540Z,79.95
2018-12-20T14:24:11.990Z,79.07
2018-12-20T14:26:39.436Z,78.78
2018-12-20T14:29:06.868Z,79.48
2018-12-20T14:31:34.393Z,79.49
2018-12-20T14:34:01.837Z,78.83
2018-12-20T14:36:29.307Z,79.02
2018-12-20T14:38:56.790Z,79.53
2018-12-20T14:41:24.240Z,80.02
2018-12-20T14:43:51.694Z,79.92
2018-12-20T14:46:19.136Z,79.63
2018-12-20T14:48:46.598Z,79.33
2018-12-20T14:51:14.029Z,79.67
2018-12-20T14:53:41.477Z,79.66
2018-12-20T14:56:08.925Z,80.16
2018-12-20T14:58:36.360Z,79.23
2018-12-20T15:01:03.823Z,79.50
2018-12-20T15:03:31.874Z,79.70
2018-12-20T15:05:59.319Z,79.60
2018-12-20T15:08:26.759Z,79.61
2018-12-20T15:10:54.196Z,79.47
2018-12-20T15:13:21.633Z,80.21
2018-12-20T15:15:49.072Z,80.42
2018-12-20T15:18:16.520Z,80.11
2018-12-20T15:20:44.040Z,79.53
2018-12-20T15:23:11.484Z,79.60
2018-12-20T15:25:39.071Z,79.79
2018-12-20T15:28:06.512Z,79.37
2018-12-20T15:30:33.948Z,79.57
2018-12-20T15:33:01.404Z,79.81
2018-12-20T15:35:28.898Z,79.78
2018-12-20T15:37:56.336Z,79.56
2018-12-20T15:40:23.777Z,79.45
2018-12-20T15:42:51.229Z,79.37
2018-12-20T15:45:18.846Z,78.88
2018-12-20T15:47:46.353Z,79.32
2018-12-20T15:50:13.778Z,79.63
2018-12-20T15:52:41.229Z,79.37
2018-12-20T15:55:08.669Z,79.16
2018-12-20T15:57:36.109Z,79.38
2018-12-20T16:00:03.562Z,79.43
2018-12-20T16:02:31.001Z,79.71
2018-12-20T16:04:58.438Z,79.71
2018-12-20T16:07:25.880Z,79.51
2018-12-20T16:09:53.336Z,79.89
2018-12-20T16:12:20.774Z,80.09
2018-12-20T16:14:48.216Z,79.48
2018-12-20T16:17:15.660Z,81.59
2018-12-20T16:19:43.100Z,81.38
2018-12-20T16:22:10.548Z,81.08
2018-12-20T16:24:38.002Z,81.04
2018-12-20T16:27:05.448Z,81.48
2018-12-20T16:29:32.883Z,80.85
2018-12-20T16:32:00.329Z,81.10
2018-12-20T16:34:27.773Z,81.08
2018-12-20T16:36:55.219Z,80.55
2018-12-20T16:39:22.700Z,80.78
2018-12-20T16:41:50.148Z,81.53
2018-12-20T16:44:17.594Z,80.72
2018-12-20T16:46:45.097Z,80.86
2018-12-20T16:49:13.777Z,81.40
2018-12-20T16:51:41.557Z,81.26
2018-12-20T16:54:09.004Z,81.32
2018-12-20T16:56:36.436Z,80.73
2018-12-20T16:59:03.878Z,81.45
2018-12-20T17:01:31.328Z,81.37
2018-12-20T17:03:58.772Z,80.59
2018-12-20T17:06:26.215Z,81.37
2018-12-20T17:08:53.725Z,81.28
2018-12-20T17:11:21.164Z,80.97
2018-12-20T17:13:48.603Z,81.00
2018-12-20T17:16:16.043Z,80.88
2018-12-20T17:18:43.489Z,81.22
2018-12-20T17:21:10.976Z,80.45
2018-12-20T17:23:38.420Z,81.34
2018-12-20T17:26:05.928Z,81.39
2018-12-20T17:28:33.369Z,82.01
2018-12-20T17:31:00.834Z,81.71
2018-12-20T17:33:28.276Z,80.82
2018-12-20T17:35:55.880Z,81.71
2018-12-20T17:38:23.316Z,81.54
2018-12-20T17:40:50.761Z,81.04
2018-12-20T17:43:18.205Z,82.09
2018-12-20T17:45:45.632Z,81.43
2018-12-20T17:48:13.123Z,82.06
2018-12-20T17:50:40.535Z,82.61
2018-12-20T17:53:07.971Z,81.97
2018-12-20T17:55:35.425Z,81.39
2018-12-20T17:58:02.861Z,80.67
2018-12-20T18:00:30.307Z,79.94
2018-12-20T18:02:57.765Z,79.04
2018-12-20T18:05:25.201Z,79.25
2018-12-20T18:07:52.648Z,78.63
2018-12-20T18:10:20.076Z,79.07
2018-12-20T18:12:47.516Z,78.32
2018-12-20T18:15:14.961Z,78.11
2018-12-20T18:17:42.437Z,79.60
2018-12-20T18:20:09.895Z,79.05
2018-12-20T18:22:37.332Z,78.83
2018-12-20T18:25:04.771Z,79.06
2018-12-20T18:27:32.225Z,78.97
2018-12-20T18:29:59.664Z,78.48
2018-12-20T18:32:27.123Z,78.78
2018-12-20T18:34:54.676Z,77.67
2018-12-20T18:37:22.120Z,78.45
2018-12-20T18:39:49.579Z,78.91
2018-12-20T18:42:17.032Z,78.16
2018-12-20T18:44:44.524Z,78.13
2018-12-20T18:47:11.960Z,78.55
2018-12-20T18:49:47.322Z,77.91
2018-12-20T18:52:08.848Z,78.26
2018-12-20T18:54:36.288Z,78.06
2018-12-20T18:57:03.731Z,78.41
2018-12-20T18:59:31.260Z,79.07
2018-12-20T19:01:58.704Z,78.31
2018-12-20T19:04:26.153Z,78.69
2018-12-20T19:06:53.592Z,79.39
2018-12-20T19:09:21.097Z,80.02
2018-12-20T19:11:48.541Z,79.90
2018-12-20T19:14:16.358Z,79.84
2018-12-20T19:16:44.009Z,80.12
2018-12-20T19:19:11.460Z,79.74
2018-12-20T19:21:38.984Z,80.36
2018-12-20T19:24:06.512Z,80.05
2018-12-20T19:26:33.961Z,79.51
2018-12-20T19:29:01.409Z,79.64
2018-12-20T19:31:28.840Z,79.21
2018-12-20T19:33:56.285Z,79.16
2018-12-20T19:36:23.737Z,79.55
2018-12-20T19:38:51.200Z,79.64
2018-12-20T19:41:18.650Z,80.06
2018-12-20T19:43:46.092Z,79.57
2018-12-20T19:46:13.525Z,79.71
2018-12-20T19:48:40.964Z,80.04
2018-12-20T19:51:08.418Z,79.79
2018-12-20T19:53:35.868Z,80.44
2018-12-20T19:56:03.312Z,79.89
2018-12-20T19:58:30.760Z,79.85
2018-12-20T20:00:58.213Z,79.84
2018-12-20T20:03:25.683Z,80.10
2018-12-20T20:05:53.125Z,79.78
2018-12-20T20:08:20.572Z,80.11
2018-12-20T20:10:48.017Z,80.11
2018-12-20T20:13:19.212Z,80.16
2018-12-20T20:15:44.888Z,79.92
2018-12-20T20:18:12.339Z,79.47
2018-12-20T20:20:39.776Z,79.83
2018-12-20T20:23:07.227Z,80.36
2018-12-20T20:25:34.672Z,80.51
2018-12-20T20:28:02.112Z,79.65
2018-12-20T20:30:29.544Z,80.08
2018-12-20T20:32:56.986Z,79.76
2018-12-20T20:35:24.425Z,80.28
2018-12-20T20:37:51.867Z,80.12
2018-12-20T20:40:19.305Z,79.26
2018-12-20T20:42:46.812Z,78.80
2018-12-20T20:45:14.230Z,78.62
2018-12-20T20:47:41.659Z,78.43
2018-12-20T20:50:09.098Z,78.57
2018-12-20T20:52:36.569Z,78.54
2018-12-20T20:55:05.758Z,79.17
2018-12-20T20:57:33.331Z,78.77
2018-12-20T21:00:00.778Z,78.54
2018-12-20T21:02:28.214Z,78.28
2018-12-20T21:04:55.644Z,78.82
2018-12-20T21:07:23.088Z,78.54
2018-12-20T21:09:50.526Z,78.95
2018-12-20T21:12:22.769Z,79.09
2018-12-20T21:14:52.430Z,78.53
2018-12-20T21:17:16.817Z,78.64
2018-12-20T21:19:44.264Z,77.77
2018-12-20T21:22:11.792Z,78.93
2018-12-20T21:24:39.231Z,78.38
2018-12-20T21:27:06.677Z,78.48
2018-12-20T21:29:34.111Z,78.99
2018-12-20T21:32:01.548Z,78.84
2018-12-20T21:34:28.998Z,79.58
2018-12-20T21:36:56.428Z,78.60
2018-12-20T21:39:23.865Z,78.58
2018-12-20T21:41:51.307Z,78.48
2018-12-20T21:44:18.747Z,79.34
2018-12-20T21:46:46.189Z,79.02
2018-12-20T21:49:13.635Z,78.99
2018-12-20T21:51:41.084Z,79.14
2018-12-20T21:54:08.512Z,78.09
2018-12-20T21:56:35.992Z,79.04
2018-12-20T21:59:03.428Z,78.66
2018-12-20T22:01:30.912Z,78.03
2018-12-20T22:03:58.344Z,78.85
2018-12-20T22:06:25.793Z,80.25
2018-12-20T22:08:53.236Z,80.51
2018-12-20T22:11:20.676Z,79.91
2018-12-20T22:13:48.116Z,80.20
2018-12-20T22:16:15.555Z,80.50
2018-12-20T22:18:43.001Z,80.42
2018-12-20T22:21:10.428Z,80.43
2018-12-20T22:23:37.881Z,81.33
2018-12-20T22:26:05.324Z,80.93
2018-12-20T22:28:32.768Z,80.46
2018-12-20T22:31:00.209Z,80.12
2018-12-20T22:33:27.644Z,80.57
2018-12-20T22:35:55.075Z,80.32
2018-12-20T22:38:22.583Z,80.14
2018-12-20T22:40:50.021Z,80.51
2018-12-20T22:43:17.453Z,81.08
2018-12-20T22:45:44.911Z,80.58
2018-12-20T22:48:12.341Z,80.36
2018-12-20T22:50:39.797Z,80.84
2018-12-20T22:53:07.309Z,80.75
2018-12-20T22:55:34.741Z,80.40
2018-12-20T22:58:02.189Z,80.11
2018-12-20T23:00:29.632Z,80.48
2018-12-20T23:02:57.060Z,79.70
2018-12-20T23:05:24.517Z,79.33
2018-12-20T23:07:51.936Z,79.00
2018-12-20T23:10:19.374Z,78.60
2018-12-20T23:12:46.806Z,78.50
2018-12-20T23:15:14.241Z,78.10
2018-12-20T23:17:41.671Z,77.70
2018-12-20T23:20:09.117Z,77.04
2018-12-20T23:22:36.540Z,76.75
2018-12-20T23:25:04.052Z,76.58
2018-12-20T23:27:31.485Z,76.84
2018-12-20T23:29:58.928Z,76.27
2018-12-20T23:32:26.364Z,75.80
2018-12-20T23:34:53.802Z,76.20
2018-12-20T23:37:21.227Z,76.65
2018-12-20T23:39:48.660Z,76.63
2018-12-20T23:42:16.148Z,77.00
2018-12-20T23:44:43.580Z,77.29
2018-12-20T23:47:11.012Z,76.11
2018-12-20T23:49:38.687Z,75.86
2018-12-20T23:52:06.197Z,76.13
2018-12-20T23:54:33.628Z,76.37
2018-12-20T23:57:01.064Z,77.16
2018-12-20T23:59:28.499Z,76.76
